| time (UTC) | temp F | wind direction | speed knots | gust knots | rain 1hr in | rain 24hr in | rain mn in | humidity % | barometer mb |
| 20260510092156 | 55 | 30 | 11.3 | 19.1 | 0.00 | 0.00 | 0.00 | 1 | 1016.0 |
| 20260510091207 | 55 | 55 | 11.3 | 20.0 | 0.00 | 0.00 | 0.00 | 1 | 1016.1 |
| 20260510085017 | 54 | 46 | 11.3 | 19.1 | 0.00 | 0.00 | 0.00 | 1 | 1015.9 |
| 20260510084024 | 54 | 20 | 10.4 | 20.9 | 0.00 | 0.00 | 0.00 | 1 | 1015.9 |
| 20260510083037 | 54 | 36 | 10.4 | 20.9 | 0.00 | 0.00 | 0.00 | 1 | 1015.8 |
| 20260510082054 | 54 | 40 | 9.6 | 20.9 | 0.00 | 0.00 | 0.00 | 1 | 1015.9 |
| 20260510081045 | 54 | 17 | 10.4 | 20.9 | 0.00 | 0.00 | 0.00 | 1 | 1015.9 |
| 20260510080016 | 55 | 68 | 8.7 | 17.4 | 0.00 | 0.00 | 0.00 | 1 | 1015.9 |
| 20260510073849 | 54 | 32 | 8.7 | 15.6 | 0.00 | 0.00 | 0.00 | 1 | 1016.1 |
| 20260510072817 | 54 | 84 | 7.8 | 13.9 | 0.00 | 0.00 | 0.00 | 1 | 1016.0 |
| 20260510070643 | 54 | 80 | 7.8 | 16.5 | 0.00 | 0.00 | 0.00 | 1 | 1016.2 |
| 20260510064550 | 55 | 90 | 7.0 | 15.6 | 0.00 | 0.00 | 0.00 | 1 | 1016.1 |
| 20260510063545 | 55 | 53 | 7.8 | 16.5 | 0.00 | 0.00 | 0.00 | 1 | 1016.0 |
| 20260510062533 | 55 | 40 | 9.6 | 18.2 | 0.00 | 0.00 | 0.00 | 1 | 1016.0 |
| 20260510061528 | 54 | 51 | 8.7 | 18.2 | 0.00 | 0.00 | 0.00 | 1 | 1016.1 |
| 20260510060524 | 54 | 32 | 7.8 | 17.4 | 0.00 | 0.00 | 0.00 | 1 | 1016.0 |
| 20260510055504 | 54 | 44 | 7.8 | 16.5 | 0.00 | 0.00 | 0.00 | 1 | 1016.0 |
| 20260510054439 | 53 | 69 | 7.8 | 16.5 | 0.00 | 0.00 | 0.00 | 1 | 1016.0 |
| 20260510053417 | 53 | 34 | 9.6 | 18.2 | 0.00 | 0.00 | 0.00 | 1 | 1016.1 |
| 20260510052351 | 53 | 5 | 8.7 | 18.2 | 0.00 | 0.00 | 0.00 | 1 | 1016.1 |
| 20260510051338 | 53 | 5 | 9.6 | 17.4 | 0.00 | 0.00 | 0.00 | 1 | 1016.2 |
| 20260510050319 | 53 | 57 | 9.6 | 16.5 | 0.00 | 0.00 | 0.00 | 1 | 1016.2 |
| 20260510045307 | 53 | 11 | 8.7 | 15.6 | 0.00 | 0.00 | 0.00 | 1 | 1016.1 |
| 20260510044236 | 53 | 25 | 9.6 | 15.6 | 0.00 | 0.00 | 0.00 | 1 | 1016.1 |
| 20260510043244 | 53 | 36 | 7.8 | 15.6 | 0.00 | 0.00 | 0.00 | 1 | 1016.0 |
| 20260510042223 | 53 | 36 | 7.8 | 15.6 | 0.00 | 0.00 | 0.00 | 1 | 1016.1 |
| 20260510040045 | 54 | 32 | 9.6 | 17.4 | 0.00 | 0.00 | 0.00 | 1 | 1016.0 |
| 20260510035110 | 54 | 37 | 8.7 | 15.6 | 0.00 | 0.00 | 0.00 | 1 | 1016.0 |
| 20260510034059 | 54 | 39 | 8.7 | 16.5 | 0.00 | 0.00 | 0.00 | 1 | 1016.0 |
| 20260510033110 | 54 | 38 | 8.7 | 16.5 | 0.00 | 0.00 | 0.00 | 1 | 1016.0 |
| 20260510032043 | 54 | 40 | 7.8 | 14.8 | 0.00 | 0.00 | 0.00 | 1 | 1016.1 |
| 20260510031046 | 54 | 15 | 7.8 | 14.8 | 0.00 | 0.00 | 0.00 | 1 | 1016.1 |
| 20260510024952 | 54 | 55 | 7.0 | 15.6 | 0.00 | 0.00 | 0.00 | 1 | 1016.0 |
| 20260510022831 | 54 | 57 | 6.1 | 14.8 | 0.00 | 0.00 | 0.00 | 1 | 1016.0 |
| 20260510021817 | 55 | 48 | 6.1 | 14.8 | 0.00 | 0.00 | 0.00 | 1 | 1016.1 |
| 20260510015731 | 55 | 40 | 5.2 | 13.0 | 0.00 | 0.00 | 0.00 | 1 | 1016.2 |
| 20260510014739 | 55 | 68 | 7.0 | 13.0 | 0.00 | 0.00 | 0.00 | 1 | 1016.2 |
| 20260510013802 | 55 | 45 | 5.2 | 12.2 | 0.00 | 0.00 | 0.00 | 1 | 1016.3 |
| 20260510012821 | 55 | 63 | 4.3 | 11.3 | 0.00 | 0.00 | 0.00 | 1 | 1016.4 |
| 20260510005459 | 55 | 71 | 4.3 | 11.3 | 0.00 | 0.00 | 0.00 | 1 | 1016.3 |
| 20260510004436 | 55 | 62 | 5.2 | 12.2 | 0.00 | 0.00 | 0.00 | 1 | 1016.2 |
| 20260510003434 | 55 | 59 | 5.2 | 12.2 | 0.00 | 0.00 | 0.00 | 1 | 1016.3 |
| 20260510002445 | 55 | 55 | 4.3 | 9.6 | 0.00 | 0.00 | 0.00 | 1 | 1016.4 |
| 20260510001456 | 55 | 37 | 4.3 | 9.6 | 0.00 | 0.00 | 0.00 | 1 | 1016.3 |
| 20260510000444 | 55 | 71 | 4.3 | 11.3 | 0.00 | 0.00 | 0.00 | 1 | 1016.4 |
| 20260509235501 | 55 | 75 | 4.3 | 11.3 | 0.00 | 0.00 | 0.00 | 1 | 1016.6 |
| 20260509234510 | 55 | 79 | 4.3 | 10.4 | 0.00 | 0.00 | 0.00 | 1 | 1016.5 |
| 20260509233523 | 55 | 84 | 3.5 | 10.4 | 0.00 | 0.00 | 0.00 | 1 | 1016.6 |
| 20260509232540 | 55 | 61 | 3.5 | 9.6 | 0.00 | 0.00 | 0.00 | 1 | 1016.7 |
| 20260509231518 | 55 | 73 | 4.3 | 9.6 | 0.00 | 0.00 | 0.00 | 1 | 1016.8 |
| 20260509230502 | 55 | 65 | 3.5 | 9.6 | 0.00 | 0.00 | 0.00 | 1 | 1016.8 |
| 20260509224355 | 55 | 70 | 2.6 | 7.8 | 0.00 | 0.00 | 0.00 | 1 | 1016.7 |
| 20260509223353 | 55 | 74 | 3.5 | 9.6 | 0.00 | 0.00 | 0.00 | 1 | 1016.7 |
| 20260509222333 | 55 | 51 | 3.5 | 10.4 | 0.00 | 0.00 | 0.00 | 1 | 1016.6 |
| 20260509221321 | 55 | 80 | 3.5 | 10.4 | 0.00 | 0.00 | 0.00 | 1 | 1016.8 |
| 20260509220323 | 55 | 71 | 3.5 | 8.7 | 0.00 | 0.00 | 0.00 | 1 | 1016.7 |
| 20260509215248 | 55 | 59 | 2.6 | 8.7 | 0.00 | 0.00 | 0.00 | 1 | 1016.7 |
| 20260509214258 | 55 | 63 | 3.5 | 9.6 | 0.00 | 0.00 | 0.00 | 1 | 1016.7 |
| 20260509213236 | 55 | 53 | 3.5 | 9.6 | 0.00 | 0.00 | 0.00 | 1 | 1016.8 |
| 20260509211111 | 55 | 64 | 3.5 | 7.8 | 0.00 | 0.00 | 0.00 | 1 | 1016.7 |
| 20260509210037 | 55 | 70 | 3.5 | 8.7 | 0.00 | 0.00 | 0.00 | 1 | 1016.6 |
| 20260509205006 | 55 | 61 | 3.5 | 9.6 | 0.00 | 0.00 | 0.00 | 1 | 1016.4 |
| 20260509203935 | 55 | 62 | 3.5 | 9.6 | 0.00 | 0.00 | 0.00 | 1 | 1016.5 |
| 20260509202946 | 56 | 53 | 3.5 | 9.6 | 0.00 | 0.00 | 0.00 | 1 | 1016.6 |
| 20260509200819 | 56 | 57 | 2.6 | 9.6 | 0.00 | 0.00 | 0.00 | 1 | 1016.4 |
| 20260509195839 | 56 | 71 | 3.5 | 9.6 | 0.00 | 0.00 | 0.00 | 1 | 1016.3 |
| 20260509194858 | 57 | 56 | 4.3 | 8.7 | 0.00 | 0.00 | 0.00 | 1 | 1016.1 |
| 20260509193920 | 57 | 72 | 3.5 | 8.7 | 0.00 | 0.00 | 0.00 | 1 | 1016.1 |
| 20260509192914 | 57 | 58 | 3.5 | 7.8 | 0.00 | 0.00 | 0.00 | 3 | 1016.1 |
| 20260509191906 | 58 | 99 | 3.5 | 8.7 | 0.00 | 0.00 | 0.00 | 5 | 1016.1 |
| 20260509190929 | 58 | 33 | 4.3 | 9.6 | 0.00 | 0.00 | 0.00 | 12 | 1016.0 |
| 20260509185858 | 59 | 46 | 3.5 | 9.6 | 0.00 | 0.00 | 0.00 | 29 | 1015.9 |
| 20260509184829 | 59 | 73 | 3.5 | 8.7 | 0.00 | 0.00 | 0.00 | 42 | 1016.0 |
| 20260509183819 | 59 | 51 | 4.3 | 9.6 | 0.00 | 0.00 | 0.00 | 47 | 1016.0 |
| 20260509182825 | 59 | 79 | 4.3 | 10.4 | 0.00 | 0.00 | 0.00 | 49 | 1015.9 |
| 20260509181759 | 59 | 69 | 5.2 | 10.4 | 0.00 | 0.00 | 0.00 | 50 | 1015.8 |
| 20260509180735 | 60 | 49 | 5.2 | 11.3 | 0.00 | 0.00 | 0.00 | 50 | 1015.8 |
| 20260509174537 | 60 | 77 | 5.2 | 12.2 | 0.00 | 0.00 | 0.00 | 49 | 1015.7 |
| 20260509173523 | 60 | 40 | 5.2 | 12.2 | 0.00 | 0.00 | 0.00 | 49 | 1015.7 |
| 20260509172524 | 60 | 92 | 6.1 | 13.9 | 0.00 | 0.00 | 0.00 | 50 | 1015.7 |
| 20260509170402 | 61 | 47 | 6.1 | 14.8 | 0.00 | 0.00 | 0.00 | 49 | 1015.9 |
| 20260509165331 | 61 | 60 | 5.2 | 13.0 | 0.00 | 0.00 | 0.00 | 47 | 1016.0 |
| 20260509164352 | 61 | 73 | 6.1 | 13.0 | 0.00 | 0.00 | 0.00 | 46 | 1016.0 |
| 20260509163402 | 61 | 101 | 7.0 | 12.2 | 0.00 | 0.00 | 0.00 | 47 | 1016.1 |
| 20260509162413 | 62 | 71 | 6.1 | 12.2 | 0.00 | 0.00 | 0.00 | 48 | 1016.0 |
| 20260509161408 | 63 | 44 | 6.1 | 13.0 | 0.00 | 0.00 | 0.00 | 49 | 1016.1 |
| 20260509160345 | 63 | 75 | 5.2 | 13.0 | 0.00 | 0.00 | 0.00 | 50 | 1016.1 |
| 20260509155333 | 63 | 107 | 6.1 | 13.0 | 0.00 | 0.00 | 0.00 | 50 | 1016.2 |
| 20260509154319 | 63 | 83 | 6.1 | 11.3 | 0.00 | 0.00 | 0.00 | 48 | 1016.4 |
| 20260509153335 | 63 | 99 | 6.1 | 13.0 | 0.00 | 0.00 | 0.00 | 48 | 1016.5 |
| 20260509152315 | 63 | 77 | 5.2 | 13.0 | 0.00 | 0.00 | 0.00 | 47 | 1016.6 |
| 20260509151322 | 63 | 85 | 5.2 | 13.9 | 0.00 | 0.00 | 0.00 | 47 | 1016.4 |
| 20260509150320 | 63 | 96 | 7.0 | 13.9 | 0.00 | 0.00 | 0.00 | 44 | 1016.3 |
| 20260509145315 | 63 | 78 | 6.1 | 13.0 | 0.00 | 0.00 | 0.00 | 44 | 1016.4 |
| 20260509144244 | 63 | 101 | 6.1 | 13.9 | 0.00 | 0.00 | 0.00 | 43 | 1016.3 |
| 20260509143209 | 63 | 80 | 7.0 | 13.9 | 0.00 | 0.00 | 0.00 | 42 | 1016.2 |
| 20260509142145 | 63 | 27 | 6.1 | 13.9 | 0.00 | 0.00 | 0.00 | 39 | 1016.1 |
| 20260509140039 | 63 | 106 | 7.0 | 14.8 | 0.00 | 0.00 | 0.00 | 35 | 1016.1 |
| 20260509132801 | 65 | 56 | 6.1 | 13.9 | 0.00 | 0.00 | 0.00 | 45 | 1016.3 |
| 20260509131801 | 65 | 55 | 6.1 | 13.0 | 0.00 | 0.00 | 0.00 | 44 | 1016.4 |
| 20260509130739 | 65 | 90 | 5.2 | 11.3 | 0.00 | 0.00 | 0.00 | 46 | 1016.4 |
| 20260509125737 | 65 | 83 | 6.1 | 13.0 | 0.00 | 0.00 | 0.00 | 44 | 1016.6 |
| 20260509124728 | 64 | 114 | 6.1 | 13.0 | 0.00 | 0.00 | 0.00 | 44 | 1016.6 |
| 20260509123710 | 64 | 38 | 7.8 | 13.0 | 0.00 | 0.00 | 0.00 | 45 | 1016.7 |
| 20260509122718 | 65 | 50 | 6.1 | 13.9 | 0.00 | 0.00 | 0.00 | 43 | 1016.7 |
| 20260509121658 | 65 | 84 | 6.1 | 13.9 | 0.00 | 0.00 | 0.00 | 43 | 1016.7 |
| 20260509120640 | 65 | 88 | 6.1 | 12.2 | 0.00 | 0.00 | 0.00 | 44 | 1016.7 |
| 20260509115652 | 65 | 49 | 6.1 | 12.2 | 0.00 | 0.00 | 0.00 | 44 | 1016.7 |
| 20260509114617 | 65 | 28 | 6.1 | 11.3 | 0.00 | 0.00 | 0.00 | 43 | 1016.8 |
| 20260509113631 | 65 | 80 | 6.1 | 13.9 | 0.00 | 0.00 | 0.00 | 41 | 1016.9 |
| 20260509112605 | 66 | 96 | 6.1 | 13.9 | 0.00 | 0.00 | 0.00 | 44 | 1017.1 |
| 20260509111537 | 65 | 61 | 5.2 | 11.3 | 0.00 | 0.00 | 0.00 | 43 | 1017.2 |
| 20260509110552 | 65 | 59 | 6.1 | 11.3 | 0.00 | 0.00 | 0.00 | 41 | 1017.2 |
| 20260509105558 | 65 | 75 | 5.2 | 11.3 | 0.00 | 0.00 | 0.00 | 40 | 1017.2 |
| 20260509104605 | 65 | 61 | 6.1 | 13.9 | 0.00 | 0.00 | 0.00 | 41 | 1017.3 |
| 20260509103553 | 65 | 52 | 7.0 | 13.9 | 0.00 | 0.00 | 0.00 | 41 | 1017.3 |
| 20260509102530 | 66 | 80 | 4.3 | 9.6 | 0.00 | 0.00 | 0.00 | 36 | 1017.4 |
| 20260509101541 | 65 | 84 | 5.2 | 10.4 | 0.00 | 0.00 | 0.00 | 35 | 1017.5 |
| 20260509100541 | 65 | 58 | 5.2 | 10.4 | 0.00 | 0.00 | 0.00 | 37 | 1017.3 |
| 20260509094353 | 64 | 80 | 5.2 | 11.3 | 0.00 | 0.00 | 0.00 | 31 | 1017.3 |